Time;durP1;ratioP1;P1;durP2;ratioP2;P2;SDS_P1;SDS_P2;PMS_P1;PMS_P2;Temp;Humidity;BMP_temperature;BMP_pressure;BME280_temperature;BME280_humidity;BME280_pressure;Samples;Min_cycle;Max_cycle;Signal;HPM_P1;HPM_P2
2022/01/21 00:00:17;;;;;;;2.17;0.70;;;;;;;;;;5029661;28;20231;-62
2022/01/21 00:02:44;;;;;;;3.67;0.97;;;;;;;;;;5029183;28;20204;-61
2022/01/21 00:05:12;;;;;;;0.60;0.60;;;;;;;;;;5028837;28;20258;-62
2022/01/21 00:07:40;;;;;;;0.70;0.70;;;;;;;;;;5028988;28;20215;-61
2022/01/21 00:10:08;;;;;;;2.30;0.87;;;;;;;;;;5029682;28;20229;-61
2022/01/21 00:12:36;;;;;;;3.60;0.80;;;;;;;;;;5028983;28;20234;-62
2022/01/21 00:15:03;;;;;;;4.57;1.00;;;;;;;;;;5029645;28;20221;-60
2022/01/21 00:17:30;;;;;;;0.30;0.30;;;;;;;;;;5029500;28;20234;-61
2022/01/21 00:30:54;;;;;;;0.33;0.33;;;;;;;;;;5033517;28;21006;-61
2022/01/21 00:33:21;;;;;;;0.70;0.67;;;;;;;;;;5033057;28;20219;-61
2022/01/21 00:35:48;;;;;;;1.40;0.53;;;;;;;;;;5032557;28;20211;-61
2022/01/21 00:38:16;;;;;;;1.80;0.43;;;;;;;;;;5033473;28;20621;-61
2022/01/21 00:40:44;;;;;;;1.20;0.43;;;;;;;;;;5032402;28;20212;-61
2022/01/21 00:43:17;;;;;;;0.83;0.70;;;;;;;;;;5032884;28;20208;-61
2022/01/21 00:45:44;;;;;;;2.17;0.57;;;;;;;;;;5027992;28;20936;-61
2022/01/21 00:48:11;;;;;;;0.43;0.30;;;;;;;;;;5032774;28;20203;-61
2022/01/21 00:50:38;;;;;;;0.63;0.63;;;;;;;;;;5032415;28;20292;-61
2022/01/21 00:53:05;;;;;;;2.73;0.63;;;;;;;;;;5027787;28;20563;-61
2022/01/21 00:55:34;;;;;;;0.43;0.43;;;;;;;;;;5032225;28;20218;-62
2022/01/21 00:58:01;;;;;;;1.07;0.97;;;;;;;;;;5032954;28;20208;-61
2022/01/21 01:00:28;;;;;;;3.50;0.80;;;;;;;;;;5032618;28;20207;-60
2022/01/21 01:02:55;;;;;;;2.77;0.90;;;;;;;;;;5032859;28;20212;-60
2022/01/21 01:05:22;;;;;;;0.47;0.47;;;;;;;;;;5031589;28;20262;-60
2022/01/21 01:07:49;;;;;;;0.70;0.50;;;;;;;;;;5032573;28;20211;-62
2022/01/21 01:10:22;;;;;;;0.97;0.70;;;;;;;;;;5031966;28;20646;-61
2022/01/21 01:12:59;;;;;;;0.33;0.33;;;;;;;;;;5032834;28;20215;-61
2022/01/21 01:21:07;;;;;;;3.23;1.13;;;;;;;;;;5023412;28;20216;-60
2022/01/21 01:23:49;;;;;;;0.87;0.87;;;;;;;;;;5028204;28;20214;-59
2022/01/21 01:29:02;;;;;;;4.80;0.80;;;;;;;;;;5032107;28;20752;-60
2022/01/21 01:31:29;;;;;;;4.17;0.70;;;;;;;;;;5031217;28;20269;-59
2022/01/21 01:33:59;;;;;;;4.23;0.57;;;;;;;;;;5029872;28;20242;-62
2022/01/21 01:36:26;;;;;;;4.17;1.20;;;;;;;;;;5031437;28;20294;-60
2022/01/21 01:39:07;;;;;;;3.87;1.33;;;;;;;;;;5031351;28;20721;-60
2022/01/21 01:41:38;;;;;;;2.17;1.00;;;;;;;;;;5031055;28;20366;-60
2022/01/21 01:49:37;;;;;;;1.57;0.90;;;;;;;;;;5031258;28;20283;-60
2022/01/21 01:52:06;;;;;;;0.33;0.33;;;;;;;;;;5030681;28;20214;-62
2022/01/21 01:54:35;;;;;;;0.93;0.90;;;;;;;;;;5030884;28;20202;-59
2022/01/21 01:57:02;;;;;;;0.87;0.87;;;;;;;;;;5030626;28;20266;-60
2022/01/21 01:59:30;;;;;;;1.30;1.20;;;;;;;;;;5029575;28;20209;-59
2022/01/21 02:01:58;;;;;;;2.83;0.70;;;;;;;;;;5030373;28;20203;-59
2022/01/21 02:04:26;;;;;;;0.73;0.73;;;;;;;;;;5029945;28;20252;-60
2022/01/21 02:06:53;;;;;;;1.47;1.10;;;;;;;;;;5029546;28;20214;-59
2022/01/21 02:09:22;;;;;;;1.07;1.07;;;;;;;;;;5030013;28;20279;-61
2022/01/21 02:11:49;;;;;;;2.20;1.13;;;;;;;;;;5029925;28;20293;-60
2022/01/21 02:14:21;;;;;;;1.03;0.90;;;;;;;;;;5029816;28;20227;-60
2022/01/21 02:17:14;;;;;;;4.73;1.00;;;;;;;;;;5029374;28;20744;-62
2022/01/21 02:22:32;;;;;;;2.50;1.13;;;;;;;;;;5029856;28;20204;-61
2022/01/21 02:25:11;;;;;;;1.30;0.80;;;;;;;;;;5030232;28;20218;-62
2022/01/21 02:27:38;;;;;;;0.80;0.73;;;;;;;;;;5030264;28;20214;-61
2022/01/21 02:30:07;;;;;;;0.77;0.77;;;;;;;;;;5030130;28;20231;-61
2022/01/21 02:32:34;;;;;;;0.87;0.87;;;;;;;;;;5030118;28;20223;-61
2022/01/21 02:35:01;;;;;;;0.60;0.60;;;;;;;;;;5029885;28;20249;-60
2022/01/21 02:37:29;;;;;;;1.70;1.33;;;;;;;;;;5029949;28;20221;-62
2022/01/21 02:39:56;;;;;;;1.20;1.07;;;;;;;;;;5029383;28;20670;-60
2022/01/21 02:42:23;;;;;;;8.13;1.33;;;;;;;;;;5029835;28;20213;-59
2022/01/21 02:44:50;;;;;;;0.70;0.70;;;;;;;;;;5029739;28;20218;-60
2022/01/21 02:47:17;;;;;;;1.03;0.60;;;;;;;;;;5029858;28;20767;-59
2022/01/21 02:49:44;;;;;;;3.30;0.80;;;;;;;;;;5029783;28;20233;-59
2022/01/21 02:52:14;;;;;;;3.17;0.80;;;;;;;;;;5029126;28;20730;-60
2022/01/21 02:54:42;;;;;;;0.83;0.60;;;;;;;;;;5029672;28;20229;-62
2022/01/21 02:57:09;;;;;;;0.93;0.77;;;;;;;;;;5029295;28;20210;-59
2022/01/21 02:59:37;;;;;;;2.17;1.00;;;;;;;;;;5029475;28;20305;-59
2022/01/21 03:02:04;;;;;;;1.33;0.73;;;;;;;;;;5029179;28;20676;-59
2022/01/21 03:04:38;;;;;;;0.93;0.80;;;;;;;;;;5029192;28;20210;-59
2022/01/21 03:07:06;;;;;;;7.03;1.13;;;;;;;;;;5029385;28;20214;-60
2022/01/21 03:09:33;;;;;;;4.73;1.13;;;;;;;;;;5029117;28;20229;-59
2022/01/21 03:12:01;;;;;;;4.20;0.70;;;;;;;;;;5028663;28;20211;-59
2022/01/21 03:14:28;;;;;;;1.80;0.97;;;;;;;;;;5029274;28;20217;-59
2022/01/21 03:16:55;;;;;;;3.10;1.00;;;;;;;;;;5029165;28;20759;-59
2022/01/21 03:19:22;;;;;;;0.97;0.97;;;;;;;;;;5028177;28;20214;-59
2022/01/21 03:21:49;;;;;;;0.83;0.83;;;;;;;;;;5028810;28;20288;-59
2022/01/21 03:24:16;;;;;;;1.00;1.00;;;;;;;;;;5028616;28;20267;-60
2022/01/21 03:26:43;;;;;;;7.20;1.47;;;;;;;;;;5029147;28;20257;-62
2022/01/21 03:29:12;;;;;;;1.00;1.00;;;;;;;;;;5029941;28;20259;-59
2022/01/21 03:31:39;;;;;;;1.47;1.43;;;;;;;;;;5028524;28;20234;-60
2022/01/21 03:34:06;;;;;;;1.07;1.00;;;;;;;;;;5029110;28;20235;-59
2022/01/21 03:36:33;;;;;;;2.10;1.20;;;;;;;;;;5029541;28;20242;-60
2022/01/21 03:39:00;;;;;;;1.90;0.73;;;;;;;;;;5029330;28;20221;-59
2022/01/21 03:41:27;;;;;;;1.70;1.20;;;;;;;;;;5029379;28;20226;-59
2022/01/21 03:43:54;;;;;;;6.23;0.87;;;;;;;;;;5029489;28;20219;-59
2022/01/21 03:46:22;;;;;;;5.10;1.37;;;;;;;;;;5029258;28;20654;-59
2022/01/21 03:48:50;;;;;;;3.93;1.20;;;;;;;;;;5029586;28;20275;-59
2022/01/21 03:51:18;;;;;;;2.10;1.20;;;;;;;;;;5028972;28;20730;-60
2022/01/21 03:53:46;;;;;;;4.80;1.00;;;;;;;;;;5028311;28;20272;-60
2022/01/21 03:56:13;;;;;;;3.07;1.20;;;;;;;;;;5013228;28;20244;-59
2022/01/21 03:58:40;;;;;;;2.90;1.50;;;;;;;;;;5029587;28;20216;-60
2022/01/21 04:01:07;;;;;;;4.90;1.20;;;;;;;;;;5028563;28;20266;-59
2022/01/21 04:03:35;;;;;;;2.80;1.03;;;;;;;;;;5029355;28;20356;-60
2022/01/21 04:06:02;;;;;;;0.87;0.60;;;;;;;;;;5028293;28;20273;-60
2022/01/21 04:08:29;;;;;;;1.77;1.17;;;;;;;;;;5028966;28;20694;-60
2022/01/21 04:10:57;;;;;;;1.30;0.83;;;;;;;;;;5028992;28;20621;-60
2022/01/21 04:13:26;;;;;;;2.87;1.37;;;;;;;;;;5028889;28;20260;-59
2022/01/21 04:15:54;;;;;;;1.17;1.07;;;;;;;;;;5028766;28;20304;-60
2022/01/21 04:18:22;;;;;;;1.00;1.00;;;;;;;;;;5029093;28;20211;-60
2022/01/21 04:20:52;;;;;;;1.23;1.03;;;;;;;;;;5028231;28;20206;-60
2022/01/21 04:23:20;;;;;;;5.67;1.50;;;;;;;;;;5028649;28;20664;-60
2022/01/21 04:25:47;;;;;;;2.87;1.17;;;;;;;;;;5029082;28;20219;-60
2022/01/21 04:28:14;;;;;;;4.03;0.90;;;;;;;;;;5029279;28;20217;-59
2022/01/21 04:30:42;;;;;;;6.70;1.83;;;;;;;;;;5029179;28;20267;-59
2022/01/21 04:33:09;;;;;;;8.43;2.17;;;;;;;;;;5029117;28;20238;-60
2022/01/21 04:35:36;;;;;;;3.30;1.70;;;;;;;;;;5028707;28;20238;-60
2022/01/21 04:38:08;;;;;;;4.53;1.13;;;;;;;;;;5028595;28;20266;-60
2022/01/21 04:40:40;;;;;;;3.10;1.43;;;;;;;;;;5029137;28;20221;-60
2022/01/21 04:48:37;;;;;;;5.50;1.70;;;;;;;;;;5028844;28;20215;-60
2022/01/21 04:51:14;;;;;;;1.47;1.40;;;;;;;;;;5028036;28;20247;-60
2022/01/21 04:53:43;;;;;;;1.30;1.20;;;;;;;;;;5028952;28;20219;-60
2022/01/21 04:56:10;;;;;;;1.77;1.43;;;;;;;;;;5028761;28;20208;-60
2022/01/21 04:58:37;;;;;;;1.73;1.27;;;;;;;;;;5028968;28;20643;-60
2022/01/21 05:01:06;;;;;;;2.90;1.47;;;;;;;;;;5027635;28;20934;-60
2022/01/21 05:03:33;;;;;;;4.17;1.00;;;;;;;;;;5028454;28;20204;-60
2022/01/21 05:06:01;;;;;;;1.33;1.20;;;;;;;;;;5028894;28;20204;-59
2022/01/21 05:08:32;;;;;;;3.60;0.80;;;;;;;;;;5032211;28;20634;-59
2022/01/21 05:11:03;;;;;;;8.27;0.90;;;;;;;;;;5031925;28;20284;-60
2022/01/21 05:13:37;;;;;;;0.97;0.90;;;;;;;;;;5031864;28;20207;-59
2022/01/21 05:16:05;;;;;;;1.97;1.33;;;;;;;;;;5026234;28;20210;-60
2022/01/21 05:18:32;;;;;;;1.97;1.13;;;;;;;;;;5031987;28;20208;-60
2022/01/21 05:20:59;;;;;;;1.93;1.07;;;;;;;;;;5031577;28;20231;-60
2022/01/21 05:23:27;;;;;;;2.20;0.97;;;;;;;;;;5031750;28;20203;-60
2022/01/21 05:25:54;;;;;;;3.13;2.10;;;;;;;;;;5030882;28;20280;-60
2022/01/21 05:28:22;;;;;;;6.43;2.17;;;;;;;;;;5031777;28;20264;-59
2022/01/21 05:30:50;;;;;;;5.70;1.63;;;;;;;;;;5031694;28;20278;-60
2022/01/21 05:33:17;;;;;;;1.83;1.53;;;;;;;;;;5031407;28;20200;-60
2022/01/21 05:35:44;;;;;;;4.63;2.07;;;;;;;;;;5030924;28;20211;-60
2022/01/21 05:38:11;;;;;;;3.30;1.90;;;;;;;;;;5031602;28;20242;-60
2022/01/21 05:40:38;;;;;;;2.80;1.80;;;;;;;;;;5031756;28;20203;-60
2022/01/21 05:43:05;;;;;;;7.67;2.10;;;;;;;;;;5030319;28;20221;-59
2022/01/21 05:48:19;;;;;;;3.77;2.10;;;;;;;;;;5031652;28;20345;-60
2022/01/21 05:50:46;;;;;;;2.30;1.30;;;;;;;;;;5031138;28;20285;-60
2022/01/21 05:53:13;;;;;;;8.37;2.57;;;;;;;;;;5030916;28;20210;-60
2022/01/21 05:55:42;;;;;;;4.93;2.10;;;;;;;;;;5030969;28;20233;-60
2022/01/21 05:58:10;;;;;;;5.63;1.53;;;;;;;;;;5031522;28;20307;-60
2022/01/21 06:00:39;;;;;;;6.30;1.87;;;;;;;;;;5027633;28;20216;-60
2022/01/21 06:03:06;;;;;;;2.53;2.03;;;;;;;;;;5015829;28;20216;-60
2022/01/21 06:05:33;;;;;;;2.20;1.93;;;;;;;;;;5029840;28;20672;-60
2022/01/21 06:08:01;;;;;;;4.03;2.03;;;;;;;;;;5030704;28;20250;-60
2022/01/21 06:10:28;;;;;;;1.07;0.97;;;;;;;;;;5030225;28;20231;-60
2022/01/21 06:12:56;;;;;;;1.63;1.53;;;;;;;;;;5030154;28;20685;-59
2022/01/21 06:15:23;;;;;;;4.83;1.60;;;;;;;;;;5030381;28;20310;-59
2022/01/21 06:17:51;;;;;;;2.43;1.20;;;;;;;;;;5030176;28;20718;-60
2022/01/21 06:20:18;;;;;;;1.03;0.87;;;;;;;;;;5030332;28;20218;-60
2022/01/21 06:22:45;;;;;;;8.00;1.90;;;;;;;;;;5029585;28;20627;-60
2022/01/21 06:25:12;;;;;;;1.23;1.10;;;;;;;;;;5029237;28;20641;-61
2022/01/21 06:27:40;;;;;;;1.00;0.90;;;;;;;;;;5027610;28;20219;-60
2022/01/21 06:30:07;;;;;;;6.93;1.00;;;;;;;;;;5028794;28;20264;-60
2022/01/21 06:32:35;;;;;;;3.97;1.17;;;;;;;;;;5029172;28;20316;-60
2022/01/21 06:35:03;;;;;;;11.37;1.07;;;;;;;;;;5029515;28;20245;-61
2022/01/21 06:37:30;;;;;;;1.73;1.63;;;;;;;;;;5022621;28;20214;-60
2022/01/21 06:39:57;;;;;;;5.50;1.60;;;;;;;;;;5030288;28;20210;-60
2022/01/21 06:42:26;;;;;;;1.93;1.77;;;;;;;;;;5021658;28;20205;-60
2022/01/21 06:44:53;;;;;;;2.30;1.40;;;;;;;;;;5028825;28;20215;-60
2022/01/21 06:47:20;;;;;;;3.80;1.80;;;;;;;;;;5029275;28;20556;-60
2022/01/21 06:49:47;;;;;;;2.93;1.97;;;;;;;;;;5028954;28;20230;-61
2022/01/21 06:52:16;;;;;;;3.23;1.60;;;;;;;;;;5030051;28;20237;-60
2022/01/21 06:54:43;;;;;;;7.53;2.00;;;;;;;;;;5029751;28;20420;-61
2022/01/21 06:57:10;;;;;;;1.97;1.87;;;;;;;;;;5030089;28;20217;-61
2022/01/21 06:59:37;;;;;;;3.47;2.17;;;;;;;;;;5027975;28;20350;-60
2022/01/21 07:02:04;;;;;;;2.40;1.97;;;;;;;;;;5029483;28;20258;-61
2022/01/21 07:04:33;;;;;;;6.43;2.87;;;;;;;;;;5029200;28;20626;-60
2022/01/21 07:07:00;;;;;;;1.77;1.33;;;;;;;;;;5029011;28;20207;-61
2022/01/21 07:09:29;;;;;;;4.17;1.60;;;;;;;;;;5028900;28;20202;-61
2022/01/21 07:11:56;;;;;;;4.43;1.73;;;;;;;;;;5028375;28;20233;-61
2022/01/21 07:14:23;;;;;;;3.70;2.07;;;;;;;;;;5027354;28;20221;-62
2022/01/21 07:16:50;;;;;;;7.33;1.80;;;;;;;;;;5028849;28;20265;-61
2022/01/21 07:19:17;;;;;;;8.33;1.83;;;;;;;;;;5029138;28;20207;-61
2022/01/21 07:21:44;;;;;;;2.30;1.73;;;;;;;;;;5028501;28;20217;-61
2022/01/21 07:24:11;;;;;;;6.17;1.93;;;;;;;;;;5029033;28;20222;-61
2022/01/21 07:26:40;;;;;;;6.80;2.13;;;;;;;;;;5028628;28;20272;-61
2022/01/21 07:29:07;;;;;;;2.87;2.10;;;;;;;;;;5028170;28;20269;-61
2022/01/21 07:31:34;;;;;;;10.77;2.93;;;;;;;;;;5028907;28;20241;-61
2022/01/21 07:34:04;;;;;;;11.03;2.07;;;;;;;;;;5028443;28;20610;-61
2022/01/21 07:36:32;;;;;;;6.37;2.37;;;;;;;;;;5028182;28;20583;-61
2022/01/21 07:38:59;;;;;;;1.57;1.47;;;;;;;;;;5028670;28;20913;-61
2022/01/21 07:41:26;;;;;;;8.70;3.03;;;;;;;;;;5028572;28;20265;-61
2022/01/21 07:43:54;;;;;;;2.83;1.80;;;;;;;;;;5028802;28;20283;-61
2022/01/21 07:46:22;;;;;;;7.57;2.60;;;;;;;;;;5028882;28;20219;-62
2022/01/21 07:48:49;;;;;;;3.77;2.00;;;;;;;;;;5028406;28;20292;-62
2022/01/21 07:51:16;;;;;;;2.97;2.30;;;;;;;;;;5028446;28;20597;-62
2022/01/21 07:53:43;;;;;;;2.43;2.23;;;;;;;;;;5028900;28;20367;-60
2022/01/21 07:56:10;;;;;;;2.43;2.23;;;;;;;;;;5028616;28;20215;-60
2022/01/21 07:58:37;;;;;;;1.67;1.43;;;;;;;;;;5028687;28;20210;-61
2022/01/21 08:01:06;;;;;;;3.97;1.77;;;;;;;;;;5026184;28;20223;-61
2022/01/21 08:03:33;;;;;;;7.70;1.53;;;;;;;;;;5028276;28;20637;-61
2022/01/21 08:06:00;;;;;;;2.37;2.00;;;;;;;;;;5028269;28;20219;-61
2022/01/21 08:08:27;;;;;;;11.20;3.30;;;;;;;;;;5028409;28;20215;-61
2022/01/21 08:10:54;;;;;;;6.03;3.10;;;;;;;;;;5028063;28;20268;-61
2022/01/21 08:13:22;;;;;;;3.67;2.00;;;;;;;;;;5027468;28;20211;-61
2022/01/21 08:15:49;;;;;;;4.87;2.50;;;;;;;;;;5027895;28;20207;-61
2022/01/21 08:18:17;;;;;;;4.70;2.27;;;;;;;;;;5028164;28;20219;-61
2022/01/21 08:20:44;;;;;;;11.30;2.73;;;;;;;;;;5028376;28;20231;-61
2022/01/21 08:23:11;;;;;;;4.80;2.77;;;;;;;;;;5028275;28;20214;-61
2022/01/21 08:25:42;;;;;;;4.17;2.33;;;;;;;;;;5027779;28;20696;-61
2022/01/21 08:28:09;;;;;;;8.10;2.40;;;;;;;;;;5027347;28;20222;-61
2022/01/21 08:30:37;;;;;;;3.73;1.93;;;;;;;;;;5027971;28;20223;-62
2022/01/21 08:33:04;;;;;;;3.07;2.37;;;;;;;;;;5027107;28;20710;-61
2022/01/21 08:35:33;;;;;;;2.97;1.60;;;;;;;;;;5027628;28;20247;-61
2022/01/21 08:38:00;;;;;;;2.83;2.60;;;;;;;;;;5027747;28;20701;-61
2022/01/21 08:40:27;;;;;;;4.47;2.30;;;;;;;;;;5029490;28;20623;-61
2022/01/21 08:42:54;;;;;;;13.30;2.17;;;;;;;;;;5031644;28;20686;-61
2022/01/21 08:45:22;;;;;;;4.33;2.40;;;;;;;;;;5031640;28;20208;-61
2022/01/21 08:47:50;;;;;;;3.03;2.03;;;;;;;;;;5031220;28;20208;-60
2022/01/21 08:50:18;;;;;;;3.57;1.53;;;;;;;;;;5031387;28;20235;-61
2022/01/21 08:52:47;;;;;;;3.40;1.87;;;;;;;;;;5031774;28;20244;-59
2022/01/21 08:55:15;;;;;;;3.87;1.83;;;;;;;;;;5028468;28;20208;-64
2022/01/21 08:57:43;;;;;;;2.53;1.60;;;;;;;;;;5028906;28;20208;-62
2022/01/21 09:00:12;;;;;;;4.33;2.27;;;;;;;;;;5031626;28;20753;-62
2022/01/21 09:02:39;;;;;;;4.13;1.77;;;;;;;;;;5031675;28;20208;-62
2022/01/21 09:05:06;;;;;;;5.97;2.30;;;;;;;;;;5031456;28;20266;-61
2022/01/21 09:07:33;;;;;;;3.60;2.27;;;;;;;;;;5031301;28;20338;-62
2022/01/21 09:10:02;;;;;;;6.63;1.87;;;;;;;;;;5031452;28;20220;-62
2022/01/21 09:12:29;;;;;;;3.13;1.57;;;;;;;;;;5031459;28;20355;-62
2022/01/21 09:14:56;;;;;;;3.60;1.70;;;;;;;;;;5031425;28;20270;-61
2022/01/21 09:17:23;;;;;;;2.23;1.80;;;;;;;;;;5031127;28;20226;-60
2022/01/21 09:19:50;;;;;;;1.30;1.23;;;;;;;;;;5030416;28;20211;-61
2022/01/21 09:22:18;;;;;;;2.77;1.73;;;;;;;;;;5031085;28;20208;-61
2022/01/21 09:24:45;;;;;;;2.27;2.03;;;;;;;;;;5031299;28;20242;-60
2022/01/21 09:27:13;;;;;;;1.77;1.67;;;;;;;;;;5031236;28;20700;-60
2022/01/21 09:29:41;;;;;;;11.20;1.80;;;;;;;;;;5030713;28;20209;-60
2022/01/21 09:32:09;;;;;;;2.77;1.53;;;;;;;;;;5029496;28;20225;-60
2022/01/21 09:34:36;;;;;;;10.47;2.17;;;;;;;;;;5030430;28;20294;-60
2022/01/21 09:37:04;;;;;;;5.23;2.20;;;;;;;;;;5029854;28;20216;-67
2022/01/21 09:39:32;;;;;;;4.70;1.40;;;;;;;;;;5030609;28;20367;-60
2022/01/21 09:42:01;;;;;;;1.27;1.17;;;;;;;;;;5030875;28;20215;-61
2022/01/21 09:44:30;;;;;;;5.00;1.67;;;;;;;;;;5030782;28;20268;-61
2022/01/21 09:47:00;;;;;;;3.27;1.40;;;;;;;;;;5028797;28;20205;-61
2022/01/21 09:49:27;;;;;;;2.17;1.77;;;;;;;;;;5030014;28;20216;-61
2022/01/21 09:51:54;;;;;;;8.10;1.80;;;;;;;;;;5029069;28;20234;-61
2022/01/21 09:54:22;;;;;;;3.70;1.60;;;;;;;;;;5030107;28;20299;-61
2022/01/21 09:56:50;;;;;;;4.93;1.40;;;;;;;;;;5029938;28;20220;-61
2022/01/21 09:59:18;;;;;;;3.87;1.97;;;;;;;;;;5029170;28;20220;-61
2022/01/21 10:01:50;;;;;;;3.67;1.43;;;;;;;;;;5029590;28;20207;-61
2022/01/21 10:04:17;;;;;;;3.33;1.87;;;;;;;;;;5030086;28;20266;-61
2022/01/21 10:06:45;;;;;;;2.23;1.53;;;;;;;;;;5027431;28;20636;-61
2022/01/21 10:09:13;;;;;;;2.77;1.50;;;;;;;;;;5029882;28;20212;-61
2022/01/21 10:11:40;;;;;;;2.20;1.33;;;;;;;;;;5027669;28;20257;-61
2022/01/21 10:14:07;;;;;;;1.90;1.50;;;;;;;;;;5024991;28;20211;-60
2022/01/21 10:16:34;;;;;;;4.33;1.90;;;;;;;;;;5024595;28;20481;-61
2022/01/21 10:19:03;;;;;;;3.43;2.00;;;;;;;;;;5028069;28;20211;-60
2022/01/21 10:21:31;;;;;;;4.93;1.73;;;;;;;;;;5029374;28;20208;-61
2022/01/21 10:24:05;;;;;;;1.60;1.33;;;;;;;;;;5029470;28;20208;-63
2022/01/21 10:26:32;;;;;;;6.70;1.57;;;;;;;;;;5028656;28;20220;-60
2022/01/21 10:28:59;;;;;;;1.60;1.20;;;;;;;;;;5029270;28;20691;-61
2022/01/21 10:31:27;;;;;;;4.63;1.67;;;;;;;;;;5029832;28;20216;-60
2022/01/21 10:33:56;;;;;;;4.73;3.27;;;;;;;;;;5029249;28;20346;-60
2022/01/21 10:36:27;;;;;;;2.20;1.50;;;;;;;;;;5029464;28;20666;-68
2022/01/21 10:38:57;;;;;;;2.73;1.67;;;;;;;;;;5029199;28;20670;-59
2022/01/21 10:41:31;;;;;;;5.67;3.50;;;;;;;;;;5026733;28;20207;-62
2022/01/21 10:44:06;;;;;;;2.30;2.17;;;;;;;;;;5029469;28;20212;-63
2022/01/21 10:46:34;;;;;;;2.70;2.23;;;;;;;;;;5029475;28;20273;-59
2022/01/21 10:49:02;;;;;;;1.40;1.40;;;;;;;;;;5024458;28;20212;-60
2022/01/21 10:51:31;;;;;;;3.50;1.93;;;;;;;;;;5024467;28;20239;-60
2022/01/21 10:53:59;;;;;;;2.00;1.40;;;;;;;;;;5028986;28;20232;-60
2022/01/21 10:56:27;;;;;;;5.27;1.90;;;;;;;;;;5028068;28;20227;-61
2022/01/21 10:58:56;;;;;;;3.60;1.50;;;;;;;;;;5029292;28;20212;-61
2022/01/21 11:01:27;;;;;;;5.63;1.93;;;;;;;;;;5028993;28;20860;-61
2022/01/21 11:03:58;;;;;;;3.77;1.60;;;;;;;;;;5027742;28;20219;-60
2022/01/21 11:06:29;;;;;;;3.43;1.50;;;;;;;;;;5029355;28;20725;-61
2022/01/21 11:09:11;;;;;;;1.50;1.13;;;;;;;;;;5029119;28;20222;-61
2022/01/21 11:11:39;;;;;;;2.00;1.40;;;;;;;;;;5028377;28;20205;-61
2022/01/21 11:14:10;;;;;;;2.43;1.27;;;;;;;;;;5028840;28;20270;-60
2022/01/21 11:16:40;;;;;;;1.47;1.37;;;;;;;;;;5028725;28;20216;-61
2022/01/21 11:19:10;;;;;;;1.57;1.47;;;;;;;;;;5028494;28;20714;-60
2022/01/21 11:21:45;;;;;;;1.67;1.57;;;;;;;;;;5028831;28;20215;-60
2022/01/21 11:24:14;;;;;;;3.67;2.10;;;;;;;;;;5028554;28;20733;-61
2022/01/21 11:26:42;;;;;;;2.20;1.67;;;;;;;;;;5028329;28;20208;-61
2022/01/21 11:29:10;;;;;;;1.87;1.77;;;;;;;;;;5028988;28;20208;-60
2022/01/21 11:31:37;;;;;;;4.73;1.73;;;;;;;;;;5028449;28;20218;-60
2022/01/21 11:34:05;;;;;;;1.60;1.43;;;;;;;;;;5027976;28;20681;-60
2022/01/21 11:36:32;;;;;;;6.83;1.80;;;;;;;;;;5028088;28;20210;-61
2022/01/21 11:38:59;;;;;;;2.57;2.27;;;;;;;;;;5028241;28;20208;-61
2022/01/21 11:41:28;;;;;;;5.33;1.33;;;;;;;;;;5027835;28;20216;-60
2022/01/21 11:44:00;;;;;;;6.43;1.87;;;;;;;;;;5028219;28;20208;-61
2022/01/21 11:46:40;;;;;;;2.70;2.10;;;;;;;;;;5028131;28;20236;-60
2022/01/21 11:49:10;;;;;;;4.20;2.10;;;;;;;;;;5028040;28;20218;-60
2022/01/21 11:51:38;;;;;;;3.93;1.60;;;;;;;;;;5028225;28;20228;-60
2022/01/21 11:54:06;;;;;;;4.53;1.93;;;;;;;;;;5027928;28;20241;-61
2022/01/21 11:56:35;;;;;;;1.90;1.37;;;;;;;;;;5027797;28;20200;-60
2022/01/21 11:59:05;;;;;;;2.63;1.43;;;;;;;;;;5028388;28;20204;-60
2022/01/21 12:01:38;;;;;;;3.50;1.30;;;;;;;;;;5027926;28;20212;-60
2022/01/21 12:04:05;;;;;;;3.87;1.50;;;;;;;;;;5026186;28;20350;-61
2022/01/21 12:06:33;;;;;;;1.30;1.13;;;;;;;;;;5028080;28;20380;-61
2022/01/21 12:09:02;;;;;;;0.87;0.87;;;;;;;;;;5028278;28;20212;-60
2022/01/21 12:11:35;;;;;;;0.83;0.83;;;;;;;;;;5027951;28;20641;-61
2022/01/21 12:14:04;;;;;;;0.90;0.90;;;;;;;;;;5027812;28;20229;-62
2022/01/21 12:16:53;;;;;;;0.93;0.93;;;;;;;;;;5030956;28;20295;-62
2022/01/21 12:19:32;;;;;;;1.60;0.90;;;;;;;;;;5031950;28;20678;-62
2022/01/21 12:22:11;;;;;;;3.70;0.90;;;;;;;;;;5032112;28;20243;-62
2022/01/21 12:24:55;;;;;;;1.27;1.17;;;;;;;;;;5032397;28;20299;-62
2022/01/21 12:27:25;;;;;;;0.97;0.97;;;;;;;;;;5031635;28;20888;-63
2022/01/21 12:29:52;;;;;;;2.40;1.07;;;;;;;;;;5031977;28;20212;-61
2022/01/21 12:32:31;;;;;;;1.10;1.00;;;;;;;;;;5031937;28;20216;-61
2022/01/21 12:35:07;;;;;;;1.00;1.00;;;;;;;;;;5032004;28;20239;-62
2022/01/21 12:37:51;;;;;;;1.17;1.10;;;;;;;;;;5031656;28;20220;-61
2022/01/21 12:40:32;;;;;;;2.93;0.90;;;;;;;;;;5031897;28;20211;-62
2022/01/21 12:42:59;;;;;;;1.17;1.00;;;;;;;;;;5032011;28;20705;-62
2022/01/21 12:45:26;;;;;;;0.90;0.90;;;;;;;;;;5032262;28;20216;-61
2022/01/21 12:47:55;;;;;;;1.03;0.80;;;;;;;;;;5031502;28;20216;-63
2022/01/21 12:50:30;;;;;;;0.70;0.67;;;;;;;;;;5030609;28;20232;-62
2022/01/21 12:53:14;;;;;;;4.43;0.97;;;;;;;;;;5031854;28;20263;-62
2022/01/21 12:55:55;;;;;;;1.10;1.10;;;;;;;;;;5031684;28;20666;-62
2022/01/21 12:58:24;;;;;;;1.43;1.33;;;;;;;;;;5031079;28;20219;-62
2022/01/21 13:00:56;;;;;;;2.73;1.10;;;;;;;;;;5031454;28;20610;-62
2022/01/21 13:03:27;;;;;;;0.93;0.87;;;;;;;;;;5031704;28;20938;-62
2022/01/21 13:06:00;;;;;;;1.80;1.33;;;;;;;;;;5031291;28;20220;-62
2022/01/21 13:08:32;;;;;;;2.33;0.70;;;;;;;;;;5031465;28;20220;-62
2022/01/21 13:10:59;;;;;;;1.97;1.03;;;;;;;;;;5011400;28;20209;-61
2022/01/21 13:13:47;;;;;;;0.80;0.80;;;;;;;;;;5030157;28;20232;-62
2022/01/21 13:16:23;;;;;;;0.77;0.77;;;;;;;;;;5031024;28;20209;-62
2022/01/21 13:18:59;;;;;;;0.70;0.70;;;;;;;;;;5030906;28;20220;-62
2022/01/21 13:21:26;;;;;;;1.00;1.00;;;;;;;;;;5030758;28;20231;-61
2022/01/21 13:23:57;;;;;;;1.20;1.10;;;;;;;;;;5030896;28;20208;-61
2022/01/21 13:26:25;;;;;;;2.17;0.97;;;;;;;;;;5029795;28;20267;-62
2022/01/21 13:29:00;;;;;;;1.00;0.83;;;;;;;;;;5030073;28;20240;-61
2022/01/21 13:31:27;;;;;;;3.83;1.60;;;;;;;;;;5030988;28;20207;-62
2022/01/21 13:34:07;;;;;;;2.07;1.23;;;;;;;;;;5030338;28;20275;-61
2022/01/21 13:36:39;;;;;;;5.10;1.63;;;;;;;;;;5031012;28;20270;-61
2022/01/21 13:39:10;;;;;;;2.67;1.70;;;;;;;;;;5030447;28;20204;-62
2022/01/21 13:41:47;;;;;;;3.03;0.97;;;;;;;;;;5030395;28;20212;-62
2022/01/21 13:44:14;;;;;;;1.47;0.97;;;;;;;;;;5030899;28;20222;-61
2022/01/21 13:46:41;;;;;;;4.10;1.27;;;;;;;;;;5030773;28;20728;-61
2022/01/21 13:49:09;;;;;;;1.70;1.20;;;;;;;;;;5029377;28;20266;-61
2022/01/21 13:51:36;;;;;;;1.60;1.00;;;;;;;;;;5029852;28;20644;-62
2022/01/21 13:54:05;;;;;;;1.33;1.00;;;;;;;;;;5030677;28;20238;-61
2022/01/21 13:56:32;;;;;;;2.30;1.30;;;;;;;;;;5030284;28;20212;-61
2022/01/21 13:58:59;;;;;;;2.83;1.97;;;;;;;;;;5029429;28;20481;-61
2022/01/21 14:01:30;;;;;;;3.07;1.20;;;;;;;;;;5030304;28;20208;-61
2022/01/21 14:03:58;;;;;;;2.03;1.30;;;;;;;;;;5030750;28;20239;-61
2022/01/21 14:06:28;;;;;;;4.93;1.90;;;;;;;;;;5030759;28;20718;-60
2022/01/21 14:08:59;;;;;;;2.37;1.37;;;;;;;;;;5030695;28;20682;-61
2022/01/21 14:11:27;;;;;;;2.17;1.20;;;;;;;;;;5029604;28;20207;-57
2022/01/21 14:13:59;;;;;;;2.00;1.53;;;;;;;;;;5029359;28;20235;-60
2022/01/21 14:16:27;;;;;;;3.60;1.53;;;;;;;;;;5029667;28;20208;-59
2022/01/21 14:18:55;;;;;;;1.00;1.00;;;;;;;;;;5030181;28;20208;-59
2022/01/21 14:21:23;;;;;;;2.40;2.03;;;;;;;;;;5027804;28;20449;-60
2022/01/21 14:23:51;;;;;;;6.50;1.80;;;;;;;;;;5021717;28;20811;-60
2022/01/21 14:26:20;;;;;;;3.50;2.20;;;;;;;;;;5025640;28;20216;-60
2022/01/21 14:28:48;;;;;;;7.47;1.40;;;;;;;;;;5024826;28;20212;-60
2022/01/21 14:31:28;;;;;;;1.20;1.20;;;;;;;;;;5022754;28;20302;-60
2022/01/21 14:33:55;;;;;;;1.00;1.00;;;;;;;;;;5012416;28;20244;-60
2022/01/21 14:36:22;;;;;;;1.83;1.67;;;;;;;;;;5026794;28;20212;-61
2022/01/21 14:38:50;;;;;;;0.97;0.97;;;;;;;;;;5025528;28;20208;-61
2022/01/21 14:41:18;;;;;;;1.30;1.20;;;;;;;;;;5027055;28;20204;-61
2022/01/21 14:43:52;;;;;;;2.17;1.50;;;;;;;;;;5026082;28;20223;-61
2022/01/21 14:46:25;;;;;;;3.90;1.80;;;;;;;;;;5024225;28;20208;-61
2022/01/21 14:48:58;;;;;;;2.77;2.20;;;;;;;;;;5026270;28;20303;-62
2022/01/21 14:51:33;;;;;;;2.87;2.13;;;;;;;;;;5024449;28;20232;-61
2022/01/21 14:54:12;;;;;;;1.30;1.20;;;;;;;;;;5025270;28;20227;-61
2022/01/21 14:56:42;;;;;;;1.30;1.30;;;;;;;;;;5025062;28;20212;-61
2022/01/21 14:59:13;;;;;;;1.90;1.10;;;;;;;;;;5025421;28;21024;-61
2022/01/21 15:01:58;;;;;;;1.90;1.33;;;;;;;;;;5025028;28;20748;-61
2022/01/21 15:04:25;;;;;;;6.73;1.60;;;;;;;;;;5013534;28;20208;-61
2022/01/21 15:07:06;;;;;;;3.10;1.47;;;;;;;;;;5022257;28;20213;-61
2022/01/21 15:09:33;;;;;;;1.93;1.30;;;;;;;;;;5024621;28;20239;-61
2022/01/21 15:12:12;;;;;;;3.27;1.30;;;;;;;;;;5019063;28;20207;-61
2022/01/21 15:14:45;;;;;;;1.43;1.30;;;;;;;;;;5024579;28;20231;-61
2022/01/21 15:17:13;;;;;;;1.67;1.57;;;;;;;;;;5025366;28;20212;-62
2022/01/21 15:19:41;;;;;;;1.50;1.40;;;;;;;;;;5024918;28;20211;-62
2022/01/21 15:22:11;;;;;;;1.73;1.30;;;;;;;;;;5024835;28;20258;-61
2022/01/21 15:24:39;;;;;;;1.57;1.40;;;;;;;;;;5024988;28;20859;-61
2022/01/21 15:27:07;;;;;;;5.10;1.70;;;;;;;;;;5024595;28;20246;-62
2022/01/21 15:29:35;;;;;;;2.73;1.67;;;;;;;;;;5024886;28;20254;-61